sensor_id;sensor_type;location;lat;lon;timestamp;P1;durP1;ratioP1;P2;durP2;ratioP2
52029;SDS011;38043;53.224;6.580;2023-03-14T00:01:52;34.67;;;5.82;;
52029;SDS011;38043;53.224;6.580;2023-03-14T00:04:17;27.83;;;5.57;;
52029;SDS011;38043;53.224;6.580;2023-03-14T00:06:43;34.25;;;6.32;;
52029;SDS011;38043;53.224;6.580;2023-03-14T00:09:09;20.45;;;4.80;;
52029;SDS011;38043;53.224;6.580;2023-03-14T00:11:35;37.15;;;7.32;;
52029;SDS011;38043;53.224;6.580;2023-03-14T00:14:05;26.52;;;5.55;;
52029;SDS011;38043;53.224;6.580;2023-03-14T00:16:30;29.42;;;5.80;;
52029;SDS011;38043;53.224;6.580;2023-03-14T00:18:58;27.27;;;5.55;;
52029;SDS011;38043;53.224;6.580;2023-03-14T00:21:24;29.50;;;5.05;;
52029;SDS011;38043;53.224;6.580;2023-03-14T00:23:50;24.90;;;5.38;;
52029;SDS011;38043;53.224;6.580;2023-03-14T00:26:17;28.02;;;5.30;;
52029;SDS011;38043;53.224;6.580;2023-03-14T00:28:45;28.50;;;5.22;;
52029;SDS011;38043;53.224;6.580;2023-03-14T00:31:12;32.53;;;6.35;;
52029;SDS011;38043;53.224;6.580;2023-03-14T00:36:06;29.33;;;4.55;;
52029;SDS011;38043;53.224;6.580;2023-03-14T00:38:37;26.77;;;4.85;;
52029;SDS011;38043;53.224;6.580;2023-03-14T00:41:05;21.65;;;4.70;;
52029;SDS011;38043;53.224;6.580;2023-03-14T00:45:58;27.20;;;4.93;;
52029;SDS011;38043;53.224;6.580;2023-03-14T00:48:23;28.38;;;4.75;;
52029;SDS011;38043;53.224;6.580;2023-03-14T00:50:49;30.45;;;5.55;;
52029;SDS011;38043;53.224;6.580;2023-03-14T00:53:15;33.55;;;5.57;;
52029;SDS011;38043;53.224;6.580;2023-03-14T00:55:43;24.45;;;4.63;;
52029;SDS011;38043;53.224;6.580;2023-03-14T00:58:10;29.35;;;5.07;;
52029;SDS011;38043;53.224;6.580;2023-03-14T01:00:37;26.42;;;4.18;;
52029;SDS011;38043;53.224;6.580;2023-03-14T01:03:03;25.65;;;4.90;;
52029;SDS011;38043;53.224;6.580;2023-03-14T01:05:29;22.38;;;4.97;;
52029;SDS011;38043;53.224;6.580;2023-03-14T01:07:55;20.50;;;3.95;;
52029;SDS011;38043;53.224;6.580;2023-03-14T01:10:21;21.77;;;5.18;;
52029;SDS011;38043;53.224;6.580;2023-03-14T01:12:46;25.40;;;5.75;;
52029;SDS011;38043;53.224;6.580;2023-03-14T01:15:12;24.95;;;5.03;;
52029;SDS011;38043;53.224;6.580;2023-03-14T01:17:38;27.08;;;5.43;;
52029;SDS011;38043;53.224;6.580;2023-03-14T01:20:04;23.88;;;4.47;;
52029;SDS011;38043;53.224;6.580;2023-03-14T01:22:34;22.85;;;4.80;;
52029;SDS011;38043;53.224;6.580;2023-03-14T01:25:00;25.05;;;4.15;;
52029;SDS011;38043;53.224;6.580;2023-03-14T01:27:26;20.13;;;4.60;;
52029;SDS011;38043;53.224;6.580;2023-03-14T01:29:52;24.52;;;4.18;;
52029;SDS011;38043;53.224;6.580;2023-03-14T01:32:17;24.13;;;4.88;;
52029;SDS011;38043;53.224;6.580;2023-03-14T01:34:43;23.98;;;3.80;;
52029;SDS011;38043;53.224;6.580;2023-03-14T01:37:09;24.50;;;4.60;;
52029;SDS011;38043;53.224;6.580;2023-03-14T01:39:36;20.08;;;4.15;;
52029;SDS011;38043;53.224;6.580;2023-03-14T01:42:03;23.80;;;5.10;;
52029;SDS011;38043;53.224;6.580;2023-03-14T01:44:45;27.00;;;5.28;;
52029;SDS011;38043;53.224;6.580;2023-03-14T01:47:31;22.67;;;4.03;;
52029;SDS011;38043;53.224;6.580;2023-03-14T01:50:06;16.85;;;3.65;;
52029;SDS011;38043;53.224;6.580;2023-03-14T01:52:45;23.90;;;4.90;;
52029;SDS011;38043;53.224;6.580;2023-03-14T01:55:19;18.25;;;4.63;;
52029;SDS011;38043;53.224;6.580;2023-03-14T01:57:56;13.25;;;3.47;;
52029;SDS011;38043;53.224;6.580;2023-03-14T02:00:26;19.25;;;4.75;;
52029;SDS011;38043;53.224;6.580;2023-03-14T02:02:53;14.32;;;3.33;;
52029;SDS011;38043;53.224;6.580;2023-03-14T02:05:25;14.95;;;3.63;;
52029;SDS011;38043;53.224;6.580;2023-03-14T02:07:56;22.90;;;4.22;;
52029;SDS011;38043;53.224;6.580;2023-03-14T02:10:33;17.80;;;3.92;;
52029;SDS011;38043;53.224;6.580;2023-03-14T02:13:03;19.40;;;3.65;;
52029;SDS011;38043;53.224;6.580;2023-03-14T02:15:30;16.38;;;3.60;;
52029;SDS011;38043;53.224;6.580;2023-03-14T02:17:56;27.40;;;4.80;;
52029;SDS011;38043;53.224;6.580;2023-03-14T02:22:51;15.52;;;3.50;;
52029;SDS011;38043;53.224;6.580;2023-03-14T02:28:15;20.23;;;4.15;;
52029;SDS011;38043;53.224;6.580;2023-03-14T02:30:41;19.98;;;4.50;;
52029;SDS011;38043;53.224;6.580;2023-03-14T02:33:12;12.55;;;3.08;;
52029;SDS011;38043;53.224;6.580;2023-03-14T02:35:44;19.58;;;3.60;;
52029;SDS011;38043;53.224;6.580;2023-03-14T02:38:20;15.95;;;3.28;;
52029;SDS011;38043;53.224;6.580;2023-03-14T02:41:06;13.02;;;2.95;;
52029;SDS011;38043;53.224;6.580;2023-03-14T02:43:32;20.92;;;3.53;;
52029;SDS011;38043;53.224;6.580;2023-03-14T02:45:58;15.55;;;3.10;;
52029;SDS011;38043;53.224;6.580;2023-03-14T02:48:30;13.88;;;3.25;;
52029;SDS011;38043;53.224;6.580;2023-03-14T02:51:00;25.08;;;3.90;;
52029;SDS011;38043;53.224;6.580;2023-03-14T02:53:31;18.27;;;3.22;;
52029;SDS011;38043;53.224;6.580;2023-03-14T02:55:58;19.85;;;3.22;;
52029;SDS011;38043;53.224;6.580;2023-03-14T02:58:24;17.45;;;3.17;;
52029;SDS011;38043;53.224;6.580;2023-03-14T03:00:50;16.45;;;3.33;;
52029;SDS011;38043;53.224;6.580;2023-03-14T03:03:15;14.65;;;2.85;;
52029;SDS011;38043;53.224;6.580;2023-03-14T03:05:41;21.95;;;4.07;;
52029;SDS011;38043;53.224;6.580;2023-03-14T03:10:35;12.90;;;3.30;;
52029;SDS011;38043;53.224;6.580;2023-03-14T03:13:01;16.13;;;3.53;;
52029;SDS011;38043;53.224;6.580;2023-03-14T03:15:27;17.92;;;3.80;;
52029;SDS011;38043;53.224;6.580;2023-03-14T03:17:53;19.35;;;4.22;;
52029;SDS011;38043;53.224;6.580;2023-03-14T03:20:18;17.02;;;3.72;;
52029;SDS011;38043;53.224;6.580;2023-03-14T03:22:44;21.83;;;3.90;;
52029;SDS011;38043;53.224;6.580;2023-03-14T03:25:10;16.17;;;3.83;;
52029;SDS011;38043;53.224;6.580;2023-03-14T03:27:36;22.05;;;4.97;;
52029;SDS011;38043;53.224;6.580;2023-03-14T03:30:03;19.40;;;4.32;;
52029;SDS011;38043;53.224;6.580;2023-03-14T03:32:30;19.75;;;4.13;;
52029;SDS011;38043;53.224;6.580;2023-03-14T03:34:56;19.52;;;4.03;;
52029;SDS011;38043;53.224;6.580;2023-03-14T03:37:21;18.85;;;4.10;;
52029;SDS011;38043;53.224;6.580;2023-03-14T03:39:49;13.68;;;3.42;;
52029;SDS011;38043;53.224;6.580;2023-03-14T03:42:15;11.75;;;3.78;;
52029;SDS011;38043;53.224;6.580;2023-03-14T03:44:41;18.63;;;4.38;;
52029;SDS011;38043;53.224;6.580;2023-03-14T03:47:07;16.90;;;4.50;;
52029;SDS011;38043;53.224;6.580;2023-03-14T03:49:32;19.63;;;3.97;;
52029;SDS011;38043;53.224;6.580;2023-03-14T03:51:58;19.27;;;3.83;;
52029;SDS011;38043;53.224;6.580;2023-03-14T03:54:24;15.48;;;4.40;;
52029;SDS011;38043;53.224;6.580;2023-03-14T03:56:50;19.08;;;4.43;;
52029;SDS011;38043;53.224;6.580;2023-03-14T03:59:16;22.88;;;4.55;;
52029;SDS011;38043;53.224;6.580;2023-03-14T04:01:42;22.65;;;4.20;;
52029;SDS011;38043;53.224;6.580;2023-03-14T04:04:08;16.65;;;4.03;;
52029;SDS011;38043;53.224;6.580;2023-03-14T04:06:33;24.08;;;4.85;;
52029;SDS011;38043;53.224;6.580;2023-03-14T04:08:59;23.13;;;5.40;;
52029;SDS011;38043;53.224;6.580;2023-03-14T04:11:25;25.73;;;4.80;;
52029;SDS011;38043;53.224;6.580;2023-03-14T04:13:50;21.38;;;4.63;;
52029;SDS011;38043;53.224;6.580;2023-03-14T04:16:17;27.00;;;5.68;;
52029;SDS011;38043;53.224;6.580;2023-03-14T04:18:48;30.73;;;5.75;;
52029;SDS011;38043;53.224;6.580;2023-03-14T04:21:14;24.15;;;5.38;;
52029;SDS011;38043;53.224;6.580;2023-03-14T04:23:40;21.27;;;5.45;;
52029;SDS011;38043;53.224;6.580;2023-03-14T04:26:06;29.25;;;5.55;;
52029;SDS011;38043;53.224;6.580;2023-03-14T04:28:32;26.60;;;5.50;;
52029;SDS011;38043;53.224;6.580;2023-03-14T04:30:57;27.40;;;5.50;;
52029;SDS011;38043;53.224;6.580;2023-03-14T04:33:23;25.80;;;5.65;;
52029;SDS011;38043;53.224;6.580;2023-03-14T04:35:52;23.23;;;6.63;;
52029;SDS011;38043;53.224;6.580;2023-03-14T04:38:19;17.17;;;5.70;;
52029;SDS011;38043;53.224;6.580;2023-03-14T04:40:44;23.83;;;6.55;;
52029;SDS011;38043;53.224;6.580;2023-03-14T04:43:10;20.63;;;6.13;;
52029;SDS011;38043;53.224;6.580;2023-03-14T04:45:37;23.80;;;6.60;;
52029;SDS011;38043;53.224;6.580;2023-03-14T04:48:06;25.13;;;7.45;;
52029;SDS011;38043;53.224;6.580;2023-03-14T04:50:32;22.15;;;7.32;;
52029;SDS011;38043;53.224;6.580;2023-03-14T04:52:57;25.92;;;8.00;;
52029;SDS011;38043;53.224;6.580;2023-03-14T04:55:23;25.13;;;8.02;;
52029;SDS011;38043;53.224;6.580;2023-03-14T04:57:48;27.30;;;8.10;;
52029;SDS011;38043;53.224;6.580;2023-03-14T05:00:14;23.25;;;8.35;;
52029;SDS011;38043;53.224;6.580;2023-03-14T05:02:43;20.65;;;7.35;;
52029;SDS011;38043;53.224;6.580;2023-03-14T05:05:09;23.70;;;7.75;;
52029;SDS011;38043;53.224;6.580;2023-03-14T05:07:34;22.92;;;7.95;;
52029;SDS011;38043;53.224;6.580;2023-03-14T05:10:00;27.38;;;9.30;;
52029;SDS011;38043;53.224;6.580;2023-03-14T05:12:26;24.73;;;8.88;;
52029;SDS011;38043;53.224;6.580;2023-03-14T05:14:51;19.33;;;8.00;;
52029;SDS011;38043;53.224;6.580;2023-03-14T05:17:17;22.73;;;8.85;;
52029;SDS011;38043;53.224;6.580;2023-03-14T05:19:43;19.40;;;8.43;;
52029;SDS011;38043;53.224;6.580;2023-03-14T05:22:09;24.83;;;9.13;;
52029;SDS011;38043;53.224;6.580;2023-03-14T05:24:35;24.77;;;7.82;;
52029;SDS011;38043;53.224;6.580;2023-03-14T05:27:01;19.08;;;7.95;;
52029;SDS011;38043;53.224;6.580;2023-03-14T05:29:28;23.60;;;8.75;;
52029;SDS011;38043;53.224;6.580;2023-03-14T05:31:53;19.48;;;7.55;;
52029;SDS011;38043;53.224;6.580;2023-03-14T05:34:19;23.30;;;8.10;;
52029;SDS011;38043;53.224;6.580;2023-03-14T05:36:44;23.67;;;7.43;;
52029;SDS011;38043;53.224;6.580;2023-03-14T05:39:10;24.02;;;7.88;;
52029;SDS011;38043;53.224;6.580;2023-03-14T05:41:35;24.73;;;7.53;;
52029;SDS011;38043;53.224;6.580;2023-03-14T05:44:01;25.92;;;8.32;;
52029;SDS011;38043;53.224;6.580;2023-03-14T05:46:27;25.08;;;7.70;;
52029;SDS011;38043;53.224;6.580;2023-03-14T05:48:52;16.38;;;7.28;;
52029;SDS011;38043;53.224;6.580;2023-03-14T05:51:18;24.00;;;6.63;;
52029;SDS011;38043;53.224;6.580;2023-03-14T05:53:43;20.60;;;6.10;;
52029;SDS011;38043;53.224;6.580;2023-03-14T05:56:09;18.52;;;7.18;;
52029;SDS011;38043;53.224;6.580;2023-03-14T05:58:35;18.15;;;7.18;;
52029;SDS011;38043;53.224;6.580;2023-03-14T06:01:04;17.92;;;6.22;;
52029;SDS011;38043;53.224;6.580;2023-03-14T06:03:30;20.20;;;7.05;;
52029;SDS011;38043;53.224;6.580;2023-03-14T06:05:56;16.52;;;5.40;;
52029;SDS011;38043;53.224;6.580;2023-03-14T06:08:22;13.77;;;5.38;;
52029;SDS011;38043;53.224;6.580;2023-03-14T06:10:48;13.70;;;5.00;;
52029;SDS011;38043;53.224;6.580;2023-03-14T06:13:14;14.05;;;4.63;;
52029;SDS011;38043;53.224;6.580;2023-03-14T06:15:40;11.18;;;4.72;;
52029;SDS011;38043;53.224;6.580;2023-03-14T06:18:06;14.30;;;4.47;;
52029;SDS011;38043;53.224;6.580;2023-03-14T06:20:32;16.30;;;4.82;;
52029;SDS011;38043;53.224;6.580;2023-03-14T06:23:00;14.10;;;4.68;;
52029;SDS011;38043;53.224;6.580;2023-03-14T06:25:25;18.80;;;4.65;;
52029;SDS011;38043;53.224;6.580;2023-03-14T06:27:51;12.32;;;4.65;;
52029;SDS011;38043;53.224;6.580;2023-03-14T06:30:17;7.85;;;2.08;;
52029;SDS011;38043;53.224;6.580;2023-03-14T06:32:42;4.82;;;1.50;;
52029;SDS011;38043;53.224;6.580;2023-03-14T06:35:08;9.25;;;1.67;;
52029;SDS011;38043;53.224;6.580;2023-03-14T06:37:34;9.68;;;1.40;;
52029;SDS011;38043;53.224;6.580;2023-03-14T06:39:59;14.40;;;2.00;;
52029;SDS011;38043;53.224;6.580;2023-03-14T06:42:25;15.25;;;1.70;;
52029;SDS011;38043;53.224;6.580;2023-03-14T06:44:51;22.77;;;3.60;;
52029;SDS011;38043;53.224;6.580;2023-03-14T06:47:16;21.58;;;3.30;;
52029;SDS011;38043;53.224;6.580;2023-03-14T06:49:42;22.45;;;2.80;;
52029;SDS011;38043;53.224;6.580;2023-03-14T06:52:08;19.05;;;2.92;;
52029;SDS011;38043;53.224;6.580;2023-03-14T06:54:33;22.27;;;2.55;;
52029;SDS011;38043;53.224;6.580;2023-03-14T06:56:59;13.68;;;2.25;;
52029;SDS011;38043;53.224;6.580;2023-03-14T06:59:25;30.30;;;2.80;;
52029;SDS011;38043;53.224;6.580;2023-03-14T07:01:50;22.17;;;2.25;;
52029;SDS011;38043;53.224;6.580;2023-03-14T07:04:16;23.70;;;3.33;;
52029;SDS011;38043;53.224;6.580;2023-03-14T07:06:42;17.67;;;2.38;;
52029;SDS011;38043;53.224;6.580;2023-03-14T07:09:12;12.90;;;3.25;;
52029;SDS011;38043;53.224;6.580;2023-03-14T07:11:38;13.07;;;1.60;;
52029;SDS011;38043;53.224;6.580;2023-03-14T07:14:04;9.80;;;1.52;;
52029;SDS011;38043;53.224;6.580;2023-03-14T07:16:29;11.20;;;2.05;;
52029;SDS011;38043;53.224;6.580;2023-03-14T07:18:58;12.70;;;2.03;;
52029;SDS011;38043;53.224;6.580;2023-03-14T07:21:24;8.18;;;1.42;;
52029;SDS011;38043;53.224;6.580;2023-03-14T07:23:49;8.65;;;2.05;;
52029;SDS011;38043;53.224;6.580;2023-03-14T07:26:15;7.57;;;1.20;;
52029;SDS011;38043;53.224;6.580;2023-03-14T07:28:41;8.07;;;1.98;;
52029;SDS011;38043;53.224;6.580;2023-03-14T07:31:06;4.50;;;1.00;;
52029;SDS011;38043;53.224;6.580;2023-03-14T07:33:32;9.63;;;1.20;;
52029;SDS011;38043;53.224;6.580;2023-03-14T07:35:58;9.35;;;1.35;;
52029;SDS011;38043;53.224;6.580;2023-03-14T07:38:24;4.70;;;0.90;;
52029;SDS011;38043;53.224;6.580;2023-03-14T07:40:50;5.25;;;1.08;;
52029;SDS011;38043;53.224;6.580;2023-03-14T07:43:15;4.80;;;0.85;;
52029;SDS011;38043;53.224;6.580;2023-03-14T07:45:44;4.28;;;0.77;;
52029;SDS011;38043;53.224;6.580;2023-03-14T07:48:10;2.72;;;0.75;;
52029;SDS011;38043;53.224;6.580;2023-03-14T07:50:36;2.47;;;0.60;;
52029;SDS011;38043;53.224;6.580;2023-03-14T07:53:01;2.30;;;0.70;;
52029;SDS011;38043;53.224;6.580;2023-03-14T07:55:30;1.88;;;0.38;;
52029;SDS011;38043;53.224;6.580;2023-03-14T07:57:56;3.22;;;0.73;;
52029;SDS011;38043;53.224;6.580;2023-03-14T08:00:22;5.82;;;1.10;;
52029;SDS011;38043;53.224;6.580;2023-03-14T08:02:47;6.43;;;0.73;;
52029;SDS011;38043;53.224;6.580;2023-03-14T08:05:13;7.45;;;1.15;;
52029;SDS011;38043;53.224;6.580;2023-03-14T08:07:39;6.00;;;0.88;;
52029;SDS011;38043;53.224;6.580;2023-03-14T08:10:04;6.43;;;0.93;;
52029;SDS011;38043;53.224;6.580;2023-03-14T08:12:30;10.73;;;1.15;;
52029;SDS011;38043;53.224;6.580;2023-03-14T08:14:56;4.50;;;1.30;;
52029;SDS011;38043;53.224;6.580;2023-03-14T08:17:23;11.18;;;1.17;;
52029;SDS011;38043;53.224;6.580;2023-03-14T08:19:48;8.02;;;1.20;;
52029;SDS011;38043;53.224;6.580;2023-03-14T08:22:14;1.98;;;0.70;;
52029;SDS011;38043;53.224;6.580;2023-03-14T08:24:39;6.60;;;1.20;;
52029;SDS011;38043;53.224;6.580;2023-03-14T08:27:06;8.82;;;1.60;;
52029;SDS011;38043;53.224;6.580;2023-03-14T08:29:31;10.93;;;1.77;;
52029;SDS011;38043;53.224;6.580;2023-03-14T08:31:57;3.88;;;1.00;;
52029;SDS011;38043;53.224;6.580;2023-03-14T08:34:23;8.35;;;1.58;;
52029;SDS011;38043;53.224;6.580;2023-03-14T08:36:48;10.55;;;2.08;;
52029;SDS011;38043;53.224;6.580;2023-03-14T08:39:15;17.63;;;2.53;;
52029;SDS011;38043;53.224;6.580;2023-03-14T08:41:40;16.45;;;2.00;;
52029;SDS011;38043;53.224;6.580;2023-03-14T08:44:07;19.58;;;2.65;;
52029;SDS011;38043;53.224;6.580;2023-03-14T08:46:33;16.23;;;2.65;;
52029;SDS011;38043;53.224;6.580;2023-03-14T08:49:00;14.57;;;3.08;;
52029;SDS011;38043;53.224;6.580;2023-03-14T08:51:25;17.75;;;2.05;;
52029;SDS011;38043;53.224;6.580;2023-03-14T08:53:51;10.30;;;1.90;;
52029;SDS011;38043;53.224;6.580;2023-03-14T08:56:16;22.98;;;3.33;;
52029;SDS011;38043;53.224;6.580;2023-03-14T08:58:42;19.35;;;2.83;;
52029;SDS011;38043;53.224;6.580;2023-03-14T09:01:09;18.95;;;3.03;;
52029;SDS011;38043;53.224;6.580;2023-03-14T09:03:37;13.02;;;2.35;;
52029;SDS011;38043;53.224;6.580;2023-03-14T09:06:06;21.35;;;4.38;;
52029;SDS011;38043;53.224;6.580;2023-03-14T09:08:34;15.77;;;2.40;;
52029;SDS011;38043;53.224;6.580;2023-03-14T09:11:00;16.13;;;2.95;;
52029;SDS011;38043;53.224;6.580;2023-03-14T09:13:26;31.60;;;3.28;;
52029;SDS011;38043;53.224;6.580;2023-03-14T09:15:52;26.88;;;4.40;;
52029;SDS011;38043;53.224;6.580;2023-03-14T09:18:21;22.42;;;3.80;;
52029;SDS011;38043;53.224;6.580;2023-03-14T09:20:47;27.70;;;4.18;;
52029;SDS011;38043;53.224;6.580;2023-03-14T09:23:14;23.58;;;4.75;;
52029;SDS011;38043;53.224;6.580;2023-03-14T09:25:40;26.88;;;4.22;;
52029;SDS011;38043;53.224;6.580;2023-03-14T09:28:05;23.55;;;3.38;;
52029;SDS011;38043;53.224;6.580;2023-03-14T09:30:31;29.98;;;4.72;;
52029;SDS011;38043;53.224;6.580;2023-03-14T09:32:57;27.35;;;3.38;;
52029;SDS011;38043;53.224;6.580;2023-03-14T09:35:24;28.63;;;4.18;;
52029;SDS011;38043;53.224;6.580;2023-03-14T09:37:50;15.63;;;3.17;;
52029;SDS011;38043;53.224;6.580;2023-03-14T09:40:16;18.13;;;3.53;;
52029;SDS011;38043;53.224;6.580;2023-03-14T09:42:44;19.42;;;2.75;;
52029;SDS011;38043;53.224;6.580;2023-03-14T09:47:56;18.25;;;2.95;;
52029;SDS011;38043;53.224;6.580;2023-03-14T09:50:23;29.85;;;3.50;;
52029;SDS011;38043;53.224;6.580;2023-03-14T09:52:54;11.98;;;2.40;;
52029;SDS011;38043;53.224;6.580;2023-03-14T09:55:23;20.65;;;3.03;;
52029;SDS011;38043;53.224;6.580;2023-03-14T09:57:50;22.88;;;4.45;;
52029;SDS011;38043;53.224;6.580;2023-03-14T10:00:22;22.48;;;4.47;;
52029;SDS011;38043;53.224;6.580;2023-03-14T10:02:55;30.27;;;4.88;;
52029;SDS011;38043;53.224;6.580;2023-03-14T10:05:25;22.65;;;4.35;;
52029;SDS011;38043;53.224;6.580;2023-03-14T10:10:22;15.48;;;3.42;;
52029;SDS011;38043;53.224;6.580;2023-03-14T10:12:54;20.70;;;2.63;;
52029;SDS011;38043;53.224;6.580;2023-03-14T10:15:37;15.25;;;2.53;;
52029;SDS011;38043;53.224;6.580;2023-03-14T10:18:03;18.17;;;4.22;;
52029;SDS011;38043;53.224;6.580;2023-03-14T10:20:41;19.00;;;3.17;;
52029;SDS011;38043;53.224;6.580;2023-03-14T10:25:38;20.52;;;3.88;;
52029;SDS011;38043;53.224;6.580;2023-03-14T10:28:11;18.90;;;3.40;;
52029;SDS011;38043;53.224;6.580;2023-03-14T10:30:49;11.38;;;2.63;;
52029;SDS011;38043;53.224;6.580;2023-03-14T10:35:44;15.63;;;2.78;;
52029;SDS011;38043;53.224;6.580;2023-03-14T10:38:14;25.52;;;3.67;;
52029;SDS011;38043;53.224;6.580;2023-03-14T10:40:46;14.85;;;2.28;;
52029;SDS011;38043;53.224;6.580;2023-03-14T10:43:16;12.70;;;2.28;;
52029;SDS011;38043;53.224;6.580;2023-03-14T10:45:56;12.15;;;2.33;;
52029;SDS011;38043;53.224;6.580;2023-03-14T10:51:02;13.55;;;3.15;;
52029;SDS011;38043;53.224;6.580;2023-03-14T10:53:32;14.85;;;2.78;;
52029;SDS011;38043;53.224;6.580;2023-03-14T10:56:13;10.63;;;2.30;;
52029;SDS011;38043;53.224;6.580;2023-03-14T10:58:41;19.23;;;3.45;;
52029;SDS011;38043;53.224;6.580;2023-03-14T11:01:13;12.65;;;2.30;;
52029;SDS011;38043;53.224;6.580;2023-03-14T11:03:42;12.27;;;2.38;;
52029;SDS011;38043;53.224;6.580;2023-03-14T11:06:21;13.93;;;2.50;;
52029;SDS011;38043;53.224;6.580;2023-03-14T11:08:57;11.35;;;2.13;;
52029;SDS011;38043;53.224;6.580;2023-03-14T11:11:32;13.13;;;2.78;;
52029;SDS011;38043;53.224;6.580;2023-03-14T11:14:00;14.65;;;1.85;;
52029;SDS011;38043;53.224;6.580;2023-03-14T11:27:43;10.40;;;1.65;;
52029;SDS011;38043;53.224;6.580;2023-03-14T11:30:18;5.97;;;1.70;;
52029;SDS011;38043;53.224;6.580;2023-03-14T11:32:59;14.32;;;2.17;;
52029;SDS011;38043;53.224;6.580;2023-03-14T11:41:04;7.18;;;1.33;;
52029;SDS011;38043;53.224;6.580;2023-03-14T11:43:38;10.60;;;1.75;;
52029;SDS011;38043;53.224;6.580;2023-03-14T11:48:50;7.68;;;1.85;;
52029;SDS011;38043;53.224;6.580;2023-03-14T11:51:39;8.52;;;1.50;;
52029;SDS011;38043;53.224;6.580;2023-03-14T11:56:51;11.52;;;1.80;;
52029;SDS011;38043;53.224;6.580;2023-03-14T12:02:05;13.20;;;1.80;;
52029;SDS011;38043;53.224;6.580;2023-03-14T12:04:43;7.50;;;2.00;;
52029;SDS011;38043;53.224;6.580;2023-03-14T12:07:23;8.20;;;1.67;;
52029;SDS011;38043;53.224;6.580;2023-03-14T12:09:54;20.13;;;2.30;;
52029;SDS011;38043;53.224;6.580;2023-03-14T12:12:24;12.48;;;2.55;;
52029;SDS011;38043;53.224;6.580;2023-03-14T12:14:59;6.93;;;1.80;;
52029;SDS011;38043;53.224;6.580;2023-03-14T12:17:38;6.20;;;2.33;;
52029;SDS011;38043;53.224;6.580;2023-03-14T12:20:17;18.08;;;2.80;;
52029;SDS011;38043;53.224;6.580;2023-03-14T12:25:26;13.25;;;2.40;;
52029;SDS011;38043;53.224;6.580;2023-03-14T12:35:52;11.05;;;1.88;;
52029;SDS011;38043;53.224;6.580;2023-03-14T12:43:41;16.15;;;2.60;;
52029;SDS011;38043;53.224;6.580;2023-03-14T12:59:59;13.50;;;2.53;;
52029;SDS011;38043;53.224;6.580;2023-03-14T13:02:38;10.30;;;2.15;;
52029;SDS011;38043;53.224;6.580;2023-03-14T13:05:19;10.50;;;2.47;;
52029;SDS011;38043;53.224;6.580;2023-03-14T13:15:44;11.07;;;2.00;;
52029;SDS011;38043;53.224;6.580;2023-03-14T13:18:15;10.38;;;2.38;;
52029;SDS011;38043;53.224;6.580;2023-03-14T13:20:44;5.32;;;1.55;;
52029;SDS011;38043;53.224;6.580;2023-03-14T13:23:22;9.32;;;1.80;;
52029;SDS011;38043;53.224;6.580;2023-03-14T13:25:49;9.10;;;2.22;;
52029;SDS011;38043;53.224;6.580;2023-03-14T13:28:16;10.32;;;1.52;;
52029;SDS011;38043;53.224;6.580;2023-03-14T13:30:43;12.98;;;2.20;;
52029;SDS011;38043;53.224;6.580;2023-03-14T13:33:12;6.72;;;1.45;;
52029;SDS011;38043;53.224;6.580;2023-03-14T13:35:47;9.35;;;1.67;;
52029;SDS011;38043;53.224;6.580;2023-03-14T13:38:20;6.97;;;1.40;;
52029;SDS011;38043;53.224;6.580;2023-03-14T13:40:48;9.88;;;1.98;;
52029;SDS011;38043;53.224;6.580;2023-03-14T13:43:20;6.03;;;1.70;;
52029;SDS011;38043;53.224;6.580;2023-03-14T13:46:35;6.97;;;1.48;;
52029;SDS011;38043;53.224;6.580;2023-03-14T13:48:47;11.45;;;2.22;;
52029;SDS011;38043;53.224;6.580;2023-03-14T13:51:18;12.65;;;1.77;;
52029;SDS011;38043;53.224;6.580;2023-03-14T13:53:52;10.60;;;1.92;;
52029;SDS011;38043;53.224;6.580;2023-03-14T13:56:23;10.63;;;1.83;;
52029;SDS011;38043;53.224;6.580;2023-03-14T13:58:51;16.90;;;2.08;;
52029;SDS011;38043;53.224;6.580;2023-03-14T14:03:45;14.00;;;2.40;;
52029;SDS011;38043;53.224;6.580;2023-03-14T14:09:16;13.40;;;1.70;;
52029;SDS011;38043;53.224;6.580;2023-03-14T14:14:28;8.25;;;2.08;;
52029;SDS011;38043;53.224;6.580;2023-03-14T14:17:26;3.00;;;1.23;;
52029;SDS011;38043;53.224;6.580;2023-03-14T14:19:56;8.57;;;1.83;;
52029;SDS011;38043;53.224;6.580;2023-03-14T14:22:22;7.90;;;1.77;;
52029;SDS011;38043;53.224;6.580;2023-03-14T14:24:48;7.13;;;1.45;;
52029;SDS011;38043;53.224;6.580;2023-03-14T14:27:23;13.27;;;1.80;;
52029;SDS011;38043;53.224;6.580;2023-03-14T14:29:59;6.45;;;1.83;;
52029;SDS011;38043;53.224;6.580;2023-03-14T14:32:50;11.57;;;2.10;;
52029;SDS011;38043;53.224;6.580;2023-03-14T14:35:23;7.05;;;1.80;;
52029;SDS011;38043;53.224;6.580;2023-03-14T14:38:00;8.57;;;1.80;;
52029;SDS011;38043;53.224;6.580;2023-03-14T14:40:30;10.05;;;1.80;;
52029;SDS011;38043;53.224;6.580;2023-03-14T14:43:02;9.02;;;2.15;;
52029;SDS011;38043;53.224;6.580;2023-03-14T14:45:29;9.30;;;1.67;;
52029;SDS011;38043;53.224;6.580;2023-03-14T14:50:31;13.07;;;2.33;;
52029;SDS011;38043;53.224;6.580;2023-03-14T14:53:19;11.32;;;2.10;;
52029;SDS011;38043;53.224;6.580;2023-03-14T14:55:54;18.15;;;2.92;;
52029;SDS011;38043;53.224;6.580;2023-03-14T14:58:34;13.20;;;2.33;;
52029;SDS011;38043;53.224;6.580;2023-03-14T15:01:16;12.40;;;1.92;;
52029;SDS011;38043;53.224;6.580;2023-03-14T15:03:44;13.43;;;2.20;;
52029;SDS011;38043;53.224;6.580;2023-03-14T15:06:20;11.68;;;1.75;;
52029;SDS011;38043;53.224;6.580;2023-03-14T15:08:46;21.05;;;2.28;;
52029;SDS011;38043;53.224;6.580;2023-03-14T15:11:16;5.60;;;1.43;;
52029;SDS011;38043;53.224;6.580;2023-03-14T15:13:43;5.00;;;1.60;;
52029;SDS011;38043;53.224;6.580;2023-03-14T15:16:12;12.10;;;1.88;;
52029;SDS011;38043;53.224;6.580;2023-03-14T15:18:40;11.98;;;1.83;;
52029;SDS011;38043;53.224;6.580;2023-03-14T15:21:08;5.90;;;1.63;;
52029;SDS011;38043;53.224;6.580;2023-03-14T15:23:34;8.27;;;1.77;;
52029;SDS011;38043;53.224;6.580;2023-03-14T15:26:00;5.70;;;1.70;;
52029;SDS011;38043;53.224;6.580;2023-03-14T15:28:27;8.93;;;1.55;;
52029;SDS011;38043;53.224;6.580;2023-03-14T15:30:55;12.33;;;1.50;;
52029;SDS011;38043;53.224;6.580;2023-03-14T15:33:22;11.85;;;2.47;;
52029;SDS011;38043;53.224;6.580;2023-03-14T15:35:49;6.28;;;1.40;;
52029;SDS011;38043;53.224;6.580;2023-03-14T15:38:16;7.75;;;2.20;;
52029;SDS011;38043;53.224;6.580;2023-03-14T15:40:47;15.60;;;2.83;;
52029;SDS011;38043;53.224;6.580;2023-03-14T15:43:13;11.77;;;1.95;;
52029;SDS011;38043;53.224;6.580;2023-03-14T15:45:39;11.05;;;2.33;;
52029;SDS011;38043;53.224;6.580;2023-03-14T15:48:06;11.60;;;2.55;;
52029;SDS011;38043;53.224;6.580;2023-03-14T15:50:38;14.77;;;2.88;;
52029;SDS011;38043;53.224;6.580;2023-03-14T15:53:04;10.63;;;1.73;;
52029;SDS011;38043;53.224;6.580;2023-03-14T15:55:30;2.92;;;0.93;;
52029;SDS011;38043;53.224;6.580;2023-03-14T15:57:55;9.65;;;2.10;;
52029;SDS011;38043;53.224;6.580;2023-03-14T16:00:22;9.93;;;1.90;;
52029;SDS011;38043;53.224;6.580;2023-03-14T16:02:49;7.88;;;1.77;;
52029;SDS011;38043;53.224;6.580;2023-03-14T16:05:15;8.52;;;2.25;;
52029;SDS011;38043;53.224;6.580;2023-03-14T16:07:42;7.25;;;1.63;;
52029;SDS011;38043;53.224;6.580;2023-03-14T16:10:09;10.32;;;2.13;;
52029;SDS011;38043;53.224;6.580;2023-03-14T16:12:36;7.63;;;2.60;;
52029;SDS011;38043;53.224;6.580;2023-03-14T16:15:02;12.85;;;2.05;;
52029;SDS011;38043;53.224;6.580;2023-03-14T16:17:28;12.35;;;1.92;;
52029;SDS011;38043;53.224;6.580;2023-03-14T16:19:54;7.28;;;1.40;;
52029;SDS011;38043;53.224;6.580;2023-03-14T16:22:19;9.07;;;1.98;;
52029;SDS011;38043;53.224;6.580;2023-03-14T16:24:45;8.18;;;1.80;;